ウィーン の空港の天気 - METARとTAF

ウィーン国際空港 ( LOWW / VIE ) - オーストリア ウィーン
飛行場実況気象(Metar)
観測時間12/14 07:20 CET (12/14 06:20 UTC)
風向・風速東南東 3m/s
視程5000m
天気現象もや
全天の4割程度の雲 雲底高度 60m
全天の8割程度の雲 雲底高度 180m
気温-2℃
湿度93%
気圧1022hPa
METARLOWW 140620Z 11006KT 070V130 5000 BR SCT002 BKN006 M02/M03 Q1022 R88/19//95 TEMPO 3000 BR BKN004
過去の天気等 Google飛行場航空写真 Wunderground天気予報

過去48時間のMETAR

飛行場予報(TAF)
発表時間: 12/14 06:15 CET (12/14 05:15 UTC)
予報対象時間: 14日7時 CET ~ 15日13時 CET
風向・風速東南東 4m/s
視程6000m
全天を覆う雲 雲底高度 210m
14日7時 CET ~ 14日10時 CET に 確率 40% で一時的に
視程4000m
天気現象もや
全天の8割程度の雲 雲底高度 90m
14日10時 CET ~ 14日12時 CET に徐々に
全天の4割程度の雲 雲底高度 180m
全天の8割程度の雲 雲底高度 760m
14日19時 CET ~ 14日21時 CET に徐々に
風向・風速北 3m/s
15日1時 CET ~ 15日13時 CET に一時的に
視程4000m
天気現象弱い雪
全天の8割程度の雲 雲底高度 150m
15日7時 CET ~ 15日13時 CET に 確率 30% で一時的に
視程2000m
天気現象
全天を覆う雲 鉛直視程 90m
TAF LOWW 140515Z 1406/1512 11007KT 6000 OVC007 TX01/1417Z TNM02/1406Z
PROB40 TEMPO 1406/1409 4000 BR BKN003
BECMG 1409/1411 SCT006 BKN025
BECMG 1418/1420 35005KT
TEMPO 1500/1512 4000 -SN BKN005
PROB30 TEMPO 1506/1512 2000 SN VV003